Time;durP1;ratioP1;P1;durP2;ratioP2;P2;SDS_P1;SDS_P2;PMS_P1;PMS_P2;Temp;Humidity;BMP_temperature;BMP_pressure;BME280_temperature;BME280_humidity;BME280_pressure;Samples;Min_cycle;Max_cycle;Signal;HPM_P1;HPM_P2
2024/04/04 00:00:09;;;;;;;5.63;1.70;;;8.70;99.90;;;9.09;74.58;96445.00;2334949;57;26143;-76
2024/04/04 00:02:36;;;;;;;2.47;1.03;;;8.60;99.90;;;8.99;74.33;96441.00;2334671;57;26568;-75
2024/04/04 00:05:03;;;;;;;2.97;1.27;;;8.60;99.90;;;9.02;74.45;96443.00;2334589;57;26679;-76
2024/04/04 00:07:31;;;;;;;3.03;1.50;;;8.60;99.90;;;9.02;74.58;96435.00;2334926;57;26102;-77
2024/04/04 00:09:57;;;;;;;2.17;1.00;;;8.50;99.90;;;8.98;74.05;96440.00;2334951;57;26151;-78
2024/04/04 00:12:25;;;;;;;1.97;1.20;;;8.50;99.90;;;8.85;74.73;96450.00;2334961;57;26576;-77
2024/04/04 00:14:52;;;;;;;4.53;1.40;;;8.40;99.90;;;8.64;75.37;96448.00;2334728;57;26110;-76
2024/04/04 00:17:18;;;;;;;4.43;1.30;;;8.40;99.90;;;8.83;74.68;96445.00;2334360;57;26123;-78
2024/04/04 00:19:45;;;;;;;3.27;1.20;;;8.60;99.90;;;8.99;73.89;96448.00;2334609;57;26656;-76
2024/04/04 00:22:12;;;;;;;1.93;1.00;;;8.60;99.90;;;9.06;73.47;96452.00;2334858;57;26126;-75
2024/04/04 00:24:39;;;;;;;2.10;1.13;;;8.50;99.90;;;8.85;74.33;96459.00;2334591;57;26365;-78
2024/04/04 00:27:06;;;;;;;3.60;1.17;;;8.60;99.90;;;9.04;73.62;96453.00;2334579;57;26600;-75
2024/04/04 00:29:43;;;;;;;0.60;0.60;;;8.60;99.90;;;8.96;73.34;96454.00;2335036;57;26059;-76
2024/04/04 00:32:09;;;;;;;0.80;0.70;;;8.60;99.90;;;9.06;72.92;96452.00;2334610;57;26075;-77
2024/04/04 00:34:36;;;;;;;1.70;0.70;;;8.50;99.90;;;8.97;73.43;96461.00;2334581;57;26213;-77
2024/04/04 00:37:04;;;;;;;2.27;1.03;;;8.40;99.90;;;8.78;73.43;96460.00;2334923;57;26589;-78
2024/04/04 00:39:31;;;;;;;2.43;1.23;;;8.20;99.90;;;8.72;73.66;96467.00;2334756;57;26635;-75
2024/04/04 00:41:57;;;;;;;1.07;0.80;;;8.20;99.90;;;8.86;73.11;96458.00;2334392;57;26735;-76
2024/04/04 00:44:24;;;;;;;1.50;0.90;;;8.20;99.90;;;8.65;73.22;96466.00;2334461;57;26072;-75
2024/04/04 00:46:51;;;;;;;0.70;0.63;;;8.10;99.90;;;8.67;73.82;96464.00;2334542;57;26596;-77
2024/04/04 00:49:17;;;;;;;1.80;0.60;;;8.00;99.90;;;8.54;73.78;96472.00;2334560;57;26059;-77
2024/04/04 00:51:44;;;;;;;1.53;0.80;;;7.90;99.90;;;8.16;74.78;96465.00;2334671;57;26589;-75
2024/04/04 00:54:10;;;;;;;0.97;0.80;;;7.80;99.90;;;8.04;75.60;96478.00;2334401;57;26111;-77
2024/04/04 00:56:38;;;;;;;1.23;0.70;;;8.00;99.90;;;8.44;74.88;96480.00;2334789;57;26075;-76
2024/04/04 00:59:06;;;;;;;3.90;0.70;;;8.00;99.90;;;8.45;73.81;96477.00;2333210;57;26095;-76
2024/04/04 01:01:33;;;;;;;6.10;1.10;;;7.90;99.90;;;8.34;73.84;96476.00;2331026;57;26222;-77
2024/04/04 01:03:59;;;;;;;1.53;0.97;;;7.80;99.90;;;8.24;74.48;96477.00;2331290;57;27278;-76
2024/04/04 01:06:30;;;;;;;0.57;0.53;;;7.80;99.90;;;8.24;74.84;96481.00;2331535;57;26151;-78
2024/04/04 01:08:58;;;;;;;0.90;0.50;;;7.90;99.90;;;8.34;74.45;96481.00;2333701;57;26273;-77
2024/04/04 01:11:24;;;;;;;0.87;0.50;;;8.10;99.90;;;8.49;74.24;96489.00;2331518;57;26111;-75
2024/04/04 01:13:51;;;;;;;1.53;0.90;;;8.30;99.90;;;8.75;73.67;96487.00;2331261;57;26197;-77
2024/04/04 01:16:19;;;;;;;1.97;1.20;;;8.30;99.90;;;8.73;72.85;96485.00;2331154;57;26566;-76
2024/04/04 01:18:48;;;;;;;1.67;1.07;;;8.10;99.90;;;8.54;72.46;96489.00;2333583;57;26170;-78
2024/04/04 01:21:15;;;;;;;0.97;0.60;;;8.00;99.90;;;8.31;73.86;96489.00;2331694;57;26217;-75
2024/04/04 01:23:42;;;;;;;0.60;0.60;;;8.00;99.90;;;8.39;74.04;96493.00;2331218;57;26170;-77
2024/04/04 01:26:09;;;;;;;1.37;0.53;;;8.20;99.90;;;8.65;73.36;96498.00;2331356;57;26513;-78
2024/04/04 01:28:36;;;;;;;0.40;0.40;;;8.60;99.90;;;8.99;71.54;96500.00;2334634;57;26419;-77
2024/04/04 01:31:03;;;;;;;0.60;0.60;;;8.70;99.90;;;8.75;72.39;96511.00;2334920;57;26075;-76
2024/04/04 01:33:30;;;;;;;0.67;0.53;;;8.60;99.90;;;8.90;71.97;96500.00;2334435;57;26119;-75
2024/04/04 01:35:56;;;;;;;0.93;0.50;;;8.60;99.90;;;8.90;72.36;96501.00;2334575;57;26185;-76
2024/04/04 01:38:23;;;;;;;1.47;0.80;;;8.80;99.90;;;9.12;71.09;96504.00;2334909;57;26059;-77
2024/04/04 01:40:50;;;;;;;0.77;0.77;;;8.80;99.90;;;9.18;70.85;96502.00;2333670;57;26568;-76
2024/04/04 01:43:16;;;;;;;0.93;0.60;;;8.60;99.90;;;8.97;70.93;96504.00;2331505;57;26485;-75
2024/04/04 01:45:43;;;;;;;0.93;0.60;;;8.40;99.90;;;8.77;71.89;96509.00;2331345;57;26170;-75
2024/04/04 01:48:10;;;;;;;0.70;0.50;;;8.30;99.90;;;8.68;72.58;96510.00;2331592;57;26123;-76
2024/04/04 01:50:37;;;;;;;0.70;0.70;;;8.20;99.90;;;8.70;72.53;96511.00;2331166;57;26151;-75
2024/04/04 01:53:04;;;;;;;1.00;0.90;;;8.10;99.90;;;8.62;72.04;96508.00;2331524;57;27419;-77
2024/04/04 01:55:31;;;;;;;1.27;0.90;;;7.90;99.90;;;8.25;72.88;96498.00;2331303;57;26687;-75
2024/04/04 01:57:57;;;;;;;2.90;0.70;;;7.90;99.90;;;8.27;73.52;96509.00;2331552;57;26216;-77
2024/04/04 02:00:26;;;;;;;0.90;0.53;;;7.80;99.90;;;8.24;73.44;96512.00;2331175;57;27068;-76
2024/04/04 02:02:56;;;;;;;4.83;0.80;;;7.80;99.90;;;8.13;73.15;96506.00;2335022;57;26145;-76
2024/04/04 02:05:23;;;;;;;0.73;0.70;;;7.70;99.90;;;7.99;73.80;96507.00;2333688;57;26230;-75
2024/04/04 02:07:49;;;;;;;0.80;0.70;;;7.50;99.90;;;7.84;73.72;96509.00;2331081;57;26123;-77
2024/04/04 02:10:16;;;;;;;1.50;0.80;;;7.30;99.90;;;7.75;74.39;96504.00;2330923;57;26170;-77
2024/04/04 02:12:42;;;;;;;3.20;0.93;;;7.20;99.90;;;7.51;75.08;96492.00;2330969;57;26622;-77
2024/04/04 02:15:12;;;;;;;2.93;0.90;;;7.00;99.90;;;7.49;75.32;96497.00;2330461;57;27348;-74
2024/04/04 02:17:40;;;;;;;1.43;0.83;;;7.00;99.90;;;7.28;76.56;96498.00;2330978;57;26170;-76
2024/04/04 02:20:10;;;;;;;6.27;0.70;;;7.00;99.90;;;7.21;76.09;96510.00;2331019;57;26418;-76
2024/04/04 02:22:40;;;;;;;1.43;0.60;;;7.10;99.90;;;7.39;75.96;96505.00;2330620;57;26147;-75
2024/04/04 02:25:08;;;;;;;1.10;0.83;;;7.10;99.90;;;7.40;74.84;96509.00;2330699;57;26333;-76
2024/04/04 02:27:36;;;;;;;1.50;0.53;;;7.00;99.90;;;7.28;75.09;96512.00;2333571;57;26111;-77
2024/04/04 02:30:04;;;;;;;1.03;0.90;;;6.80;99.90;;;7.17;74.51;96514.00;2330936;57;26130;-75
2024/04/04 02:32:30;;;;;;;2.13;0.87;;;6.70;99.90;;;7.11;75.36;96513.00;2330462;57;26221;-77
2024/04/04 02:34:57;;;;;;;1.17;0.80;;;6.80;99.90;;;7.12;76.10;96520.00;2330621;57;27237;-77
2024/04/04 02:37:24;;;;;;;1.27;0.87;;;6.80;99.90;;;7.17;76.27;96515.00;2330892;57;26151;-77
2024/04/04 02:39:50;;;;;;;0.60;0.60;;;6.60;99.90;;;7.04;75.20;96512.00;2330619;57;26139;-77
2024/04/04 02:42:18;;;;;;;1.90;0.67;;;6.20;99.90;;;6.65;75.16;96513.00;2330916;57;26188;-76
2024/04/04 02:44:45;;;;;;;1.73;0.90;;;6.20;99.90;;;6.60;76.47;96520.00;2330357;57;26451;-77
2024/04/04 02:47:12;;;;;;;0.40;0.40;;;6.20;99.90;;;6.48;76.17;96532.00;2330129;57;26182;-75
2024/04/04 02:49:38;;;;;;;1.67;0.87;;;6.10;99.90;;;6.54;75.55;96517.00;2330840;57;26211;-77
2024/04/04 02:52:05;;;;;;;1.93;1.10;;;6.20;99.90;;;6.46;75.83;96518.00;2330196;57;26223;-76
2024/04/04 02:54:32;;;;;;;2.47;1.23;;;6.20;99.90;;;6.55;76.30;96508.00;2330525;57;26245;-77
2024/04/04 02:56:58;;;;;;;1.27;1.00;;;6.40;99.90;;;6.67;76.85;96508.00;2330440;57;26107;-77
2024/04/04 02:59:25;;;;;;;2.07;1.47;;;6.40;99.90;;;6.76;75.97;96521.00;2330639;57;26277;-75
2024/04/04 03:01:52;;;;;;;2.67;1.23;;;6.60;99.90;;;7.00;76.30;96517.00;2330457;57;26242;-76
2024/04/04 03:04:20;;;;;;;2.47;0.97;;;6.80;99.90;;;7.06;76.95;96518.00;2330426;57;26150;-76
2024/04/04 03:06:51;;;;;;;2.07;1.10;;;7.00;99.90;;;7.27;76.34;96526.00;2330652;57;26468;-76
2024/04/04 03:09:18;;;;;;;1.23;0.97;;;7.10;99.90;;;7.45;75.95;96525.00;2330238;57;26135;-75
2024/04/04 03:11:44;;;;;;;0.40;0.40;;;7.20;99.90;;;7.42;75.76;96525.00;2330478;57;26668;-77
2024/04/04 03:14:11;;;;;;;3.20;0.73;;;7.30;99.90;;;7.56;75.16;96521.00;2330600;57;26159;-76
2024/04/04 03:16:38;;;;;;;0.40;0.40;;;7.00;99.90;;;7.37;71.00;96528.00;2331037;57;26102;-76
2024/04/04 03:19:04;;;;;;;0.70;0.70;;;6.50;99.90;;;6.87;71.54;96525.00;2331149;57;26171;-76
2024/04/04 03:21:30;;;;;;;1.27;0.70;;;6.40;99.90;;;6.73;73.96;96522.00;2330710;57;26713;-74
2024/04/04 03:23:57;;;;;;;2.30;0.50;;;6.40;99.90;;;6.68;74.33;96522.00;2330846;57;26138;-78
2024/04/04 03:26:24;;;;;;;0.50;0.50;;;6.30;99.90;;;6.52;74.45;96529.00;2330765;57;26419;-77
2024/04/04 03:28:50;;;;;;;0.97;0.73;;;6.20;99.90;;;6.65;73.88;96535.00;2330715;57;26214;-75
2024/04/04 03:31:17;;;;;;;0.60;0.60;;;6.10;99.90;;;6.53;73.60;96531.00;2330741;57;26151;-76
2024/04/04 03:33:43;;;;;;;0.40;0.40;;;6.10;99.90;;;6.34;74.11;96528.00;2330794;57;26183;-77
2024/04/04 03:36:10;;;;;;;0.63;0.60;;;6.00;99.90;;;6.19;75.41;96549.00;2329920;57;26683;-74
2024/04/04 03:38:36;;;;;;;1.03;0.67;;;6.00;99.90;;;6.21;75.82;96540.00;2329921;57;26166;-74
2024/04/04 03:41:03;;;;;;;1.97;0.70;;;6.10;99.90;;;6.39;76.11;96533.00;2330477;57;26218;-76
2024/04/04 03:43:30;;;;;;;1.40;0.77;;;6.10;99.90;;;6.38;75.25;96537.00;2330065;57;26167;-77
2024/04/04 03:45:56;;;;;;;1.97;1.17;;;6.10;99.90;;;6.28;75.32;96544.00;2330304;57;26720;-76
2024/04/04 03:48:23;;;;;;;2.13;0.70;;;6.10;99.90;;;6.27;75.84;96548.00;2330373;57;27202;-75
2024/04/04 03:50:49;;;;;;;1.03;0.70;;;6.20;99.90;;;6.42;76.89;96559.00;2330830;57;26233;-77
2024/04/04 03:53:16;;;;;;;1.07;0.53;;;6.30;99.90;;;6.56;75.99;96553.00;2330934;57;26211;-76
2024/04/04 03:55:43;;;;;;;1.60;1.00;;;6.20;99.90;;;6.53;72.59;96556.00;2330819;57;26198;-75
2024/04/04 03:58:10;;;;;;;2.10;1.00;;;5.90;99.90;;;6.40;72.06;96553.00;2330404;57;26150;-75
2024/04/04 04:00:36;;;;;;;1.13;0.60;;;5.80;99.90;;;6.28;73.60;96566.00;2330321;57;26469;-76
2024/04/04 04:03:04;;;;;;;10.20;0.87;;;5.90;99.90;;;6.13;75.73;96568.00;2330425;57;26353;-76
2024/04/04 04:05:31;;;;;;;1.33;1.03;;;5.90;99.90;;;6.11;76.40;96579.00;2330285;57;26656;-76
2024/04/04 04:07:58;;;;;;;1.13;0.73;;;6.00;99.90;;;6.24;77.22;96570.00;2330315;57;26127;-77
2024/04/04 04:10:27;;;;;;;0.90;0.50;;;6.10;99.90;;;6.51;76.40;96566.00;2331010;57;26234;-77
2024/04/04 04:12:55;;;;;;;0.90;0.60;;;6.10;99.90;;;6.50;75.77;96569.00;2333666;57;26118;-76
2024/04/04 04:15:22;;;;;;;1.40;0.63;;;6.00;99.90;;;6.43;75.39;96571.00;2334196;57;26698;-75
2024/04/04 04:17:49;;;;;;;0.70;0.70;;;5.90;99.90;;;6.32;76.85;96572.00;2333361;57;26106;-77
2024/04/04 04:23:01;;;;;;;0.60;0.60;;;6.10;99.90;;;6.55;77.48;96561.00;2331985;57;26174;-75
2024/04/04 04:25:27;;;;;;;1.03;0.60;;;6.30;99.90;;;6.66;75.83;96570.00;2332219;57;26055;-77
2024/04/04 04:27:54;;;;;;;0.97;0.67;;;6.20;99.90;;;6.57;75.40;96575.00;2330874;57;26068;-77
2024/04/04 04:30:20;;;;;;;0.53;0.40;;;6.10;99.90;;;6.42;75.94;96575.00;2331148;57;26488;-76
2024/04/04 04:32:47;;;;;;;1.43;0.50;;;6.20;99.90;;;6.56;76.71;96579.00;2332258;57;26096;-75
2024/04/04 04:35:13;;;;;;;0.70;0.70;;;6.10;99.90;;;6.48;75.84;96572.00;2331199;57;26064;-76
2024/04/04 04:37:40;;;;;;;1.73;0.87;;;6.20;99.90;;;6.52;76.48;96575.00;2331907;57;26143;-78
2024/04/04 04:40:08;;;;;;;2.20;0.83;;;6.30;99.90;;;6.56;77.16;96579.00;2331994;57;26109;-75
2024/04/04 04:42:34;;;;;;;3.07;0.90;;;6.30;99.90;;;6.64;77.25;96587.00;2332845;57;26479;-78
2024/04/04 04:45:01;;;;;;;2.33;0.90;;;6.40;99.90;;;6.72;77.43;96597.00;2332009;57;26505;-76
2024/04/04 04:47:27;;;;;;;0.67;0.60;;;6.50;99.90;;;6.78;77.62;96590.00;2331542;57;26063;-77
2024/04/04 04:49:54;;;;;;;0.63;0.63;;;6.60;99.90;;;6.96;76.98;96593.00;2329467;57;26449;-75
2024/04/04 04:52:21;;;;;;;0.90;0.67;;;6.70;99.90;;;6.97;76.52;96587.00;2330559;57;26165;-77
2024/04/04 04:54:47;;;;;;;1.33;1.00;;;6.90;99.90;;;7.18;76.66;96593.00;2331267;57;26136;-78
2024/04/04 04:57:14;;;;;;;2.10;1.10;;;6.90;99.90;;;7.31;77.12;96601.00;2331120;57;26190;-77
2024/04/04 04:59:40;;;;;;;0.73;0.70;;;7.00;99.90;;;7.50;76.55;96599.00;2331719;57;26508;-77
2024/04/04 05:02:10;;;;;;;0.50;0.50;;;7.10;99.90;;;7.37;75.64;96607.00;2331219;57;26884;-76
2024/04/04 05:04:38;;;;;;;0.57;0.57;;;6.90;99.90;;;7.18;75.92;96614.00;2330979;57;26441;-77
2024/04/04 05:07:04;;;;;;;1.67;0.93;;;7.00;99.90;;;7.38;75.97;96617.00;2331607;57;26167;-77
2024/04/04 05:09:31;;;;;;;0.77;0.70;;;7.10;99.90;;;7.44;76.08;96621.00;2331246;57;26158;-77
2024/04/04 05:11:58;;;;;;;4.57;1.63;;;7.20;99.90;;;7.48;76.12;96623.00;2330385;57;26139;-77
2024/04/04 05:14:25;;;;;;;10.30;1.83;;;7.20;99.90;;;7.51;76.16;96624.00;2330758;57;26146;-78
2024/04/04 05:16:52;;;;;;;1.43;0.93;;;7.30;99.90;;;7.68;76.27;96626.00;2331406;57;26084;-77
2024/04/04 05:19:18;;;;;;;2.73;1.03;;;7.40;99.90;;;7.84;75.91;96640.00;2331314;57;26150;-74
2024/04/04 05:21:45;;;;;;;1.47;0.80;;;7.50;99.90;;;7.85;75.67;96642.00;2331913;57;26123;-78
2024/04/04 05:24:11;;;;;;;19.50;1.57;;;7.50;99.90;;;7.80;76.06;96642.00;2330410;57;26131;-74
2024/04/04 05:26:38;;;;;;;2.70;0.80;;;7.50;99.90;;;7.90;76.33;96641.00;2330826;57;26710;-77
2024/04/04 05:29:04;;;;;;;8.47;1.07;;;7.60;99.90;;;7.91;76.64;96640.00;2329615;57;26095;-78
2024/04/04 05:31:31;;;;;;;1.60;1.30;;;7.60;99.90;;;8.03;75.85;96647.00;2331093;57;26802;-76
2024/04/04 05:33:58;;;;;;;4.10;1.43;;;7.80;99.90;;;8.25;74.45;96647.00;2330744;57;26091;-75
2024/04/04 05:36:24;;;;;;;3.33;1.10;;;7.80;99.90;;;8.25;74.51;96647.00;2330630;57;26068;-75
2024/04/04 05:38:51;;;;;;;3.93;1.97;;;8.10;99.90;;;8.62;73.33;96644.00;2331189;57;26147;-78
2024/04/04 05:41:17;;;;;;;1.23;0.80;;;8.10;99.90;;;8.41;74.22;96648.00;2331949;57;26715;-75
2024/04/04 05:43:44;;;;;;;2.40;0.90;;;8.10;99.90;;;8.56;74.98;96656.00;2331722;57;26731;-76
2024/04/04 05:46:10;;;;;;;1.23;0.90;;;8.10;99.90;;;8.56;74.62;96648.00;2331103;57;26084;-78
2024/04/04 05:48:37;;;;;;;1.33;0.60;;;8.10;99.90;;;8.60;74.82;96650.00;2330103;57;26123;-76
2024/04/04 05:51:04;;;;;;;1.60;0.70;;;8.20;99.90;;;8.70;74.79;96653.00;2330424;57;27366;-77
2024/04/04 05:53:31;;;;;;;3.07;0.90;;;8.30;99.90;;;8.92;74.14;96650.00;2331135;57;26079;-76
2024/04/04 05:55:58;;;;;;;4.10;0.90;;;8.50;99.90;;;8.96;73.60;96646.00;2330555;57;27380;-78
2024/04/04 05:58:24;;;;;;;1.40;1.03;;;8.60;99.90;;;9.17;73.08;96645.00;2330822;57;26126;-76
2024/04/04 06:00:51;;;;;;;13.43;1.40;;;8.80;99.90;;;9.31;72.47;96643.00;2331216;57;26214;-79
2024/04/04 06:03:18;;;;;;;3.83;1.80;;;8.90;99.90;;;9.43;72.40;96644.00;2331140;57;26122;-75
2024/04/04 06:05:44;;;;;;;7.67;2.10;;;9.00;99.90;;;9.53;71.51;96642.00;2329446;57;26591;-75
2024/04/04 06:08:11;;;;;;;5.07;1.67;;;9.10;99.90;;;9.67;71.46;96645.00;2330685;57;26702;-75
2024/04/04 06:10:37;;;;;;;3.63;1.63;;;9.20;99.90;;;9.78;71.49;96647.00;2329798;57;26664;-76
2024/04/04 06:13:04;;;;;;;3.27;1.33;;;9.20;99.90;;;9.77;71.36;96650.00;2331204;57;26066;-78
2024/04/04 06:15:31;;;;;;;2.20;1.23;;;9.20;99.90;;;9.71;71.23;96651.00;2331518;57;26604;-79
2024/04/04 06:17:58;;;;;;;2.33;1.40;;;9.30;99.90;;;9.87;72.00;96645.00;2332018;57;26214;-76
2024/04/04 06:20:24;;;;;;;4.50;1.60;;;9.40;99.90;;;10.10;69.71;96649.00;2331531;57;26143;-76
2024/04/04 06:22:51;;;;;;;5.37;1.90;;;9.40;99.90;;;9.89;70.40;96646.00;2331454;57;26388;-77
2024/04/04 06:25:18;;;;;;;5.57;1.77;;;9.40;99.90;;;9.86;70.34;96650.00;2331048;57;26091;-77
2024/04/04 06:27:44;;;;;;;8.37;2.33;;;9.50;99.90;;;9.99;70.00;96634.00;2330487;57;26139;-76
2024/04/04 06:30:11;;;;;;;3.83;1.23;;;9.60;99.90;;;10.26;70.03;96643.00;2331028;57;26165;-77
2024/04/04 06:32:38;;;;;;;1.43;0.70;;;10.00;99.90;;;10.70;71.96;96636.00;2330077;57;26080;-76
2024/04/04 06:35:04;;;;;;;0.77;0.73;;;10.40;99.90;;;11.16;69.41;96641.00;2330459;57;26181;-79
2024/04/04 06:37:31;;;;;;;2.97;1.40;;;10.60;99.90;;;11.29;68.07;96631.00;2330101;57;26568;-77
2024/04/04 06:39:58;;;;;;;4.07;1.60;;;10.60;99.90;;;11.43;67.12;96631.00;2329356;57;26229;-79
2024/04/04 06:42:25;;;;;;;11.47;2.37;;;10.80;99.90;;;11.70;66.81;96634.00;2331874;57;26114;-77
2024/04/04 06:44:53;;;;;;;3.43;1.53;;;11.10;99.90;;;11.92;66.59;96635.00;2332254;57;26111;-79
2024/04/04 06:47:20;;;;;;;2.50;1.30;;;11.30;99.90;;;12.26;65.10;96630.00;2331145;57;26123;-76
2024/04/04 06:49:47;;;;;;;2.97;1.47;;;11.60;99.90;;;12.58;65.12;96632.00;2330957;57;26139;-79
2024/04/04 06:52:13;;;;;;;4.83;1.33;;;11.70;99.90;;;12.72;62.89;96635.00;2330488;57;26666;-76
2024/04/04 06:54:40;;;;;;;3.47;1.30;;;11.80;99.90;;;12.71;62.21;96626.00;2332029;57;26569;-77
2024/04/04 06:57:06;;;;;;;3.90;1.40;;;11.70;99.90;;;12.64;62.83;96632.00;2331067;57;26433;-78
2024/04/04 06:59:33;;;;;;;5.00;1.50;;;11.70;99.90;;;12.61;62.75;96639.00;2330973;57;26547;-77
2024/04/04 07:01:59;;;;;;;4.20;2.53;;;11.70;99.90;;;12.63;63.57;96640.00;2331849;57;26634;-79
2024/04/04 07:04:26;;;;;;;4.60;1.90;;;11.80;99.90;;;12.73;62.98;96640.00;2327674;57;26930;-76
2024/04/04 07:06:52;;;;;;;3.00;1.53;;;12.00;99.90;;;12.95;62.06;96643.00;2330473;57;26119;-76
2024/04/04 07:09:19;;;;;;;2.67;1.60;;;12.20;99.90;;;13.03;62.27;96645.00;2332690;57;26576;-79
2024/04/04 07:11:46;;;;;;;3.27;1.90;;;12.20;99.90;;;13.17;61.85;96645.00;2331326;57;26683;-80
2024/04/04 07:14:12;;;;;;;4.83;2.30;;;12.40;99.90;;;13.37;61.52;96656.00;2329933;57;26083;-80
2024/04/04 07:16:39;;;;;;;4.13;2.20;;;12.60;99.90;;;13.59;61.23;96656.00;2331600;57;26107;-79
2024/04/04 07:19:07;;;;;;;12.13;2.27;;;12.70;99.90;;;13.70;60.37;96657.00;2330638;57;26123;-79
2024/04/04 07:21:34;;;;;;;3.97;1.70;;;12.80;99.90;;;13.88;59.50;96660.00;2331736;57;26568;-77
2024/04/04 07:24:01;;;;;;;3.43;1.63;;;12.90;99.90;;;14.03;59.24;96659.00;2329933;57;26119;-75
2024/04/04 07:26:27;;;;;;;10.83;1.80;;;12.90;99.90;;;13.98;59.01;96665.00;2331666;57;26572;-79
2024/04/04 07:28:54;;;;;;;3.77;1.93;;;12.90;99.90;;;14.04;58.26;96660.00;2331151;57;26580;-77
2024/04/04 07:31:20;;;;;;;3.43;1.83;;;12.90;99.90;;;14.06;58.51;96661.00;2331204;57;26087;-77
2024/04/04 07:33:47;;;;;;;3.33;1.80;;;13.00;99.90;;;14.07;58.39;96652.00;2332098;57;26521;-79
2024/04/04 07:36:13;;;;;;;4.50;1.77;;;13.00;99.90;;;14.07;57.93;96658.00;2331471;57;26094;-79
2024/04/04 07:38:40;;;;;;;5.77;1.97;;;13.10;99.90;;;14.17;57.70;96665.00;2331659;57;26710;-79
2024/04/04 07:41:07;;;;;;;3.73;1.70;;;13.20;99.90;;;14.32;58.46;96671.00;2332211;57;26118;-77
2024/04/04 07:43:34;;;;;;;6.57;2.20;;;13.20;99.90;;;14.28;58.99;96661.00;2144513;57;10000634;-78
2024/04/04 07:46:01;;;;;;;3.37;1.60;;;13.30;99.90;;;14.36;59.50;96663.00;2245493;59;26170;-79
2024/04/04 07:48:28;;;;;;;9.70;2.30;;;13.40;99.90;;;14.37;59.93;96675.00;2245676;59;26813;-77
2024/04/04 07:50:55;;;;;;;4.30;1.83;;;13.40;99.90;;;14.30;59.37;96670.00;2244961;59;26694;-76
2024/04/04 07:53:22;;;;;;;10.70;1.57;;;13.30;99.90;;;14.31;58.70;96663.00;2244149;59;26687;-79
2024/04/04 07:55:48;;;;;;;8.87;1.40;;;13.30;99.90;;;14.33;57.66;96653.00;2242789;59;26162;-78
2024/04/04 07:58:15;;;;;;;25.37;2.97;;;13.30;99.90;;;14.34;57.97;96654.00;2243350;59;26141;-79
2024/04/04 08:00:43;;;;;;;6.18;2.12;;;13.40;99.90;;;14.44;57.65;96651.00;2243362;59;26150;-79
2024/04/04 08:03:10;;;;;;;9.60;1.67;;;13.50;99.90;;;14.67;55.46;96656.00;2244031;59;26218;-77
2024/04/04 08:05:37;;;;;;;10.73;2.23;;;13.50;99.90;;;14.59;56.03;96662.00;2243609;60;26208;-79
2024/04/04 08:08:04;;;;;;;11.63;2.70;;;13.60;99.90;;;14.59;56.96;96656.00;2244265;59;26503;-79
2024/04/04 08:10:31;;;;;;;5.50;2.05;;;13.70;99.90;;;14.91;56.50;96644.00;2243909;59;26690;-78
2024/04/04 08:12:57;;;;;;;10.53;1.90;;;13.90;99.90;;;14.98;56.08;96648.00;2244417;59;26843;-76
2024/04/04 08:15:24;;;;;;;6.43;1.87;;;14.00;99.90;;;15.05;55.62;96641.00;2248798;57;26101;-77
2024/04/04 08:17:50;;;;;;;13.18;1.60;;;13.90;99.40;;;15.09;54.24;96647.00;2330142;57;26664;-78
2024/04/04 08:20:17;;;;;;;3.43;1.37;;;14.10;99.60;;;15.21;54.52;96656.00;2330030;57;26543;-79
2024/04/04 08:22:49;;;;;;;2.00;0.90;;;14.20;99.20;;;15.33;53.63;96645.00;2330578;57;26159;-79
2024/04/04 08:25:16;;;;;;;1.73;1.23;;;14.20;99.10;;;15.33;53.82;96656.00;2330921;57;26115;-76
2024/04/04 08:27:44;;;;;;;7.53;1.58;;;14.20;98.80;;;15.28;53.38;96656.00;2329381;57;26144;-76
2024/04/04 08:30:11;;;;;;;16.17;2.13;;;14.30;99.30;;;15.36;54.28;96655.00;2329594;57;26653;-76
2024/04/04 08:32:38;;;;;;;4.30;1.75;;;14.30;99.90;;;15.33;55.53;96659.00;2329891;57;26162;-76
2024/04/04 08:35:09;;;;;;;2.78;1.25;;;14.30;99.90;;;15.47;55.37;96673.00;2328040;57;26202;-79
2024/04/04 08:37:38;;;;;;;7.80;1.67;;;14.40;99.40;;;15.51;54.44;96668.00;2328786;57;26143;-79
2024/04/04 08:40:08;;;;;;;16.62;1.83;;;14.40;99.90;;;15.50;55.50;96672.00;2329925;57;26413;-78
2024/04/04 08:42:35;;;;;;;8.03;2.53;;;14.50;99.90;;;15.50;55.90;96680.00;2329698;57;27004;-78
2024/04/04 08:45:03;;;;;;;6.00;2.13;;;14.40;99.90;;;15.46;55.64;96672.00;2328338;57;26859;-78
2024/04/04 08:47:31;;;;;;;4.25;2.00;;;14.50;99.60;;;15.61;54.93;96674.00;2327991;57;26135;-77
2024/04/04 08:49:57;;;;;;;5.80;2.05;;;14.60;99.10;;;15.76;53.85;96670.00;2329116;57;26225;-79
2024/04/04 08:52:24;;;;;;;6.30;1.42;;;14.70;99.50;;;15.92;54.21;96661.00;2328827;57;26448;-77
2024/04/04 08:54:54;;;;;;;1.65;0.95;;;14.90;99.10;;;16.19;53.52;96657.00;2329728;57;26147;-79
2024/04/04 08:57:25;;;;;;;6.37;1.00;;;15.10;98.90;;;16.31;53.38;96664.00;2330019;57;26142;-76
2024/04/04 08:59:59;;;;;;;3.67;0.82;;;15.30;98.50;;;16.60;52.24;96666.00;2329927;57;26901;-79
2024/04/04 09:02:26;;;;;;;1.77;0.80;;;15.70;97.80;;;17.08;51.06;96666.00;2327542;57;26065;-77
2024/04/04 09:05:07;;;;;;;3.37;1.30;;;15.90;98.40;;;17.13;52.37;96664.00;2328789;57;26126;-79
2024/04/04 09:07:36;;;;;;;2.05;1.20;;;16.10;98.10;;;17.25;51.86;96664.00;2327697;57;26174;-77
2024/04/04 09:10:03;;;;;;;3.60;1.20;;;16.40;96.70;;;17.68;49.27;96654.00;2330200;57;26186;-78
2024/04/04 09:12:30;;;;;;;3.17;0.82;;;16.60;96.20;;;17.90;48.36;96654.00;2329597;57;26931;-80
2024/04/04 09:15:00;;;;;;;2.10;0.70;;;16.60;95.60;;;17.73;48.26;96658.00;2330513;57;26167;-78
2024/04/04 09:17:27;;;;;;;2.12;0.85;;;16.90;94.70;;;18.13;46.33;96652.00;2330946;57;26130;-77
2024/04/04 09:19:59;;;;;;;0.60;0.60;;;17.10;94.10;;;18.26;45.68;96657.00;2330572;57;26428;-75
2024/04/04 09:22:25;;;;;;;5.65;1.10;;;17.20;94.30;;;18.33;46.38;96657.00;2331217;57;26566;-77
2024/04/04 09:24:59;;;;;;;2.78;1.00;;;17.20;94.80;;;18.27;47.26;96656.00;2330978;57;26594;-77
2024/04/04 09:27:38;;;;;;;0.77;0.65;;;17.40;94.10;;;18.43;46.04;96646.00;2329959;57;26174;-76
2024/04/04 09:30:11;;;;;;;0.30;0.30;;;17.60;94.00;;;18.75;45.79;96640.00;2331428;57;26138;-75
2024/04/04 09:32:38;;;;;;;0.60;0.55;;;17.70;92.20;;;18.88;42.86;96647.00;2330977;57;26697;-77
2024/04/04 09:35:08;;;;;;;0.40;0.37;;;17.90;91.60;;;19.16;42.12;96643.00;2331419;57;26624;-77
2024/04/04 09:37:35;;;;;;;0.50;0.50;;;18.00;91.90;;;19.26;42.78;96636.00;2331482;57;26078;-76
2024/04/04 09:40:04;;;;;;;0.50;0.50;;;18.00;91.50;;;19.08;42.51;96630.00;2330542;57;26671;-77
2024/04/04 09:42:31;;;;;;;1.40;0.70;;;18.10;90.90;;;19.29;41.48;96631.00;2332407;57;26542;-76
2024/04/04 09:44:58;;;;;;;0.35;0.35;;;18.20;92.10;;;19.41;43.24;96636.00;2331618;57;26647;-75
2024/04/04 09:47:26;;;;;;;4.57;0.55;;;18.20;90.60;;;19.31;41.54;96633.00;2332317;57;26157;-77
2024/04/04 09:49:53;;;;;;;0.50;0.50;;;18.20;90.60;;;19.49;41.30;96626.00;2332410;57;26254;-75
2024/04/04 09:52:27;;;;;;;0.88;0.70;;;18.40;91.40;;;19.48;42.81;96609.00;2330636;57;26932;-77
2024/04/04 09:54:55;;;;;;;0.75;0.40;;;18.40;90.30;;;19.51;41.23;96619.00;2332277;57;26628;-76
2024/04/04 09:57:22;;;;;;;0.50;0.50;;;18.50;90.50;;;19.75;41.37;96622.00;2331730;57;26111;-76
2024/04/04 10:00:28;;;;;;;0.98;0.50;;;18.80;90.40;;;20.02;41.13;96626.00;2332053;57;26087;-75
2024/04/04 10:02:58;;;;;;;0.40;0.40;;;19.00;90.30;;;20.22;40.97;96624.00;2332382;57;26631;-78
2024/04/04 10:05:35;;;;;;;0.98;0.60;;;19.20;87.90;;;20.50;39.03;96631.00;2331167;57;26206;-75
2024/04/04 10:08:13;;;;;;;0.40;0.40;;;19.20;87.30;;;20.55;38.62;96626.00;2330544;57;26146;-77
2024/04/04 10:10:42;;;;;;;0.50;0.50;;;19.10;88.00;;;20.35;39.46;96616.00;2330315;57;26617;-77
2024/04/04 10:13:12;;;;;;;0.50;0.50;;;19.10;88.20;;;20.39;39.63;96620.00;2331846;57;26123;-75
2024/04/04 10:15:50;;;;;;;1.20;0.40;;;19.20;87.50;;;20.46;39.18;96615.00;2331024;57;26240;-75
2024/04/04 10:18:19;;;;;;;2.80;0.20;;;19.30;85.90;;;20.73;37.94;96607.00;2331711;57;26439;-76
2024/04/04 10:20:58;;;;;;;0.30;0.30;;;19.40;86.70;;;20.68;38.59;96609.00;2332759;57;26123;-78
2024/04/04 10:23:26;;;;;;;0.50;0.37;;;19.20;85.50;;;20.34;38.33;96604.00;2331654;57;26170;-78
2024/04/04 10:26:04;;;;;;;0.47;0.47;;;19.10;85.90;;;20.29;38.59;96606.00;2332583;57;26095;-78
2024/04/04 10:28:31;;;;;;;0.70;0.57;;;19.10;86.20;;;20.14;39.81;96602.00;2331647;57;26119;-78
2024/04/04 10:30:59;;;;;;;2.08;0.65;;;19.10;85.80;;;20.41;38.49;96601.00;2331933;57;26538;-76